sensor_id;sensor_type;location;lat;lon;timestamp;P1;durP1;ratioP1;P2;durP2;ratioP2
65691;SDS011;52411;52.716;6.696;2023-10-13T00:02:05;64.97;;;28.90;;
65691;SDS011;52411;52.716;6.696;2023-10-13T00:04:31;67.28;;;27.55;;
65691;SDS011;52411;52.716;6.696;2023-10-13T00:07:00;62.42;;;26.17;;
65691;SDS011;52411;52.716;6.696;2023-10-13T00:09:27;62.08;;;25.92;;
65691;SDS011;52411;52.716;6.696;2023-10-13T00:12:02;69.80;;;28.02;;
65691;SDS011;52411;52.716;6.696;2023-10-13T00:14:29;58.75;;;26.23;;
65691;SDS011;52411;52.716;6.696;2023-10-13T00:17:01;63.85;;;28.33;;
65691;SDS011;52411;52.716;6.696;2023-10-13T00:19:32;60.37;;;26.47;;
65691;SDS011;52411;52.716;6.696;2023-10-13T00:22:09;63.20;;;26.65;;
65691;SDS011;52411;52.716;6.696;2023-10-13T00:24:35;70.05;;;27.75;;
65691;SDS011;52411;52.716;6.696;2023-10-13T00:27:08;64.25;;;25.33;;
65691;SDS011;52411;52.716;6.696;2023-10-13T00:29:55;67.93;;;27.17;;
65691;SDS011;52411;52.716;6.696;2023-10-13T00:32:40;60.22;;;26.52;;
65691;SDS011;52411;52.716;6.696;2023-10-13T00:35:11;54.47;;;24.52;;
65691;SDS011;52411;52.716;6.696;2023-10-13T00:37:39;59.08;;;26.98;;
65691;SDS011;52411;52.716;6.696;2023-10-13T00:40:09;61.53;;;27.48;;
65691;SDS011;52411;52.716;6.696;2023-10-13T00:43:10;66.63;;;29.20;;
65691;SDS011;52411;52.716;6.696;2023-10-13T00:45:49;61.30;;;28.13;;
65691;SDS011;52411;52.716;6.696;2023-10-13T00:48:42;57.80;;;26.10;;
65691;SDS011;52411;52.716;6.696;2023-10-13T00:51:16;60.20;;;26.40;;
65691;SDS011;52411;52.716;6.696;2023-10-13T00:53:47;62.45;;;27.05;;
65691;SDS011;52411;52.716;6.696;2023-10-13T00:56:14;59.83;;;27.15;;
65691;SDS011;52411;52.716;6.696;2023-10-13T00:58:52;64.38;;;26.92;;
65691;SDS011;52411;52.716;6.696;2023-10-13T01:01:21;55.63;;;26.77;;
65691;SDS011;52411;52.716;6.696;2023-10-13T01:03:51;59.45;;;27.05;;
65691;SDS011;52411;52.716;6.696;2023-10-13T01:06:20;55.53;;;25.65;;
65691;SDS011;52411;52.716;6.696;2023-10-13T01:08:56;58.55;;;28.45;;
65691;SDS011;52411;52.716;6.696;2023-10-13T01:11:25;52.17;;;25.00;;
65691;SDS011;52411;52.716;6.696;2023-10-13T01:13:54;52.10;;;25.10;;
65691;SDS011;52411;52.716;6.696;2023-10-13T01:16:20;56.58;;;27.30;;
65691;SDS011;52411;52.716;6.696;2023-10-13T01:18:46;56.63;;;27.27;;
65691;SDS011;52411;52.716;6.696;2023-10-13T01:21:18;48.72;;;22.92;;
65691;SDS011;52411;52.716;6.696;2023-10-13T01:23:51;52.85;;;23.42;;
65691;SDS011;52411;52.716;6.696;2023-10-13T01:26:17;49.70;;;22.98;;
65691;SDS011;52411;52.716;6.696;2023-10-13T01:28:49;56.55;;;27.13;;
65691;SDS011;52411;52.716;6.696;2023-10-13T01:31:15;48.08;;;23.65;;
65691;SDS011;52411;52.716;6.696;2023-10-13T01:34:02;49.83;;;22.25;;
65691;SDS011;52411;52.716;6.696;2023-10-13T01:36:28;49.10;;;24.02;;
65691;SDS011;52411;52.716;6.696;2023-10-13T01:39:00;46.80;;;23.70;;
65691;SDS011;52411;52.716;6.696;2023-10-13T01:41:26;46.80;;;22.52;;
65691;SDS011;52411;52.716;6.696;2023-10-13T01:43:52;48.17;;;23.08;;
65691;SDS011;52411;52.716;6.696;2023-10-13T01:46:17;51.22;;;24.20;;
65691;SDS011;52411;52.716;6.696;2023-10-13T01:48:46;47.13;;;22.80;;
65691;SDS011;52411;52.716;6.696;2023-10-13T01:51:12;47.25;;;22.20;;
65691;SDS011;52411;52.716;6.696;2023-10-13T01:53:38;48.03;;;21.58;;
65691;SDS011;52411;52.716;6.696;2023-10-13T01:56:06;43.80;;;22.33;;
65691;SDS011;52411;52.716;6.696;2023-10-13T01:58:38;42.60;;;20.38;;
65691;SDS011;52411;52.716;6.696;2023-10-13T02:01:10;46.78;;;21.70;;
65691;SDS011;52411;52.716;6.696;2023-10-13T02:03:36;43.80;;;20.00;;
65691;SDS011;52411;52.716;6.696;2023-10-13T02:06:12;44.22;;;21.85;;
65691;SDS011;52411;52.716;6.696;2023-10-13T02:08:42;44.92;;;21.15;;
65691;SDS011;52411;52.716;6.696;2023-10-13T02:11:09;44.20;;;20.83;;
65691;SDS011;52411;52.716;6.696;2023-10-13T02:13:35;46.78;;;21.30;;
65691;SDS011;52411;52.716;6.696;2023-10-13T02:16:07;43.47;;;21.23;;
65691;SDS011;52411;52.716;6.696;2023-10-13T02:18:32;41.65;;;18.35;;
65691;SDS011;52411;52.716;6.696;2023-10-13T02:21:21;43.72;;;19.65;;
65691;SDS011;52411;52.716;6.696;2023-10-13T02:23:46;44.92;;;21.67;;
65691;SDS011;52411;52.716;6.696;2023-10-13T02:26:24;41.28;;;19.90;;
65691;SDS011;52411;52.716;6.696;2023-10-13T02:29:00;41.85;;;20.17;;
65691;SDS011;52411;52.716;6.696;2023-10-13T02:31:29;40.95;;;18.65;;
65691;SDS011;52411;52.716;6.696;2023-10-13T02:33:54;44.90;;;20.60;;
65691;SDS011;52411;52.716;6.696;2023-10-13T02:36:20;44.95;;;21.50;;
65691;SDS011;52411;52.716;6.696;2023-10-13T02:39:01;38.67;;;19.77;;
65691;SDS011;52411;52.716;6.696;2023-10-13T02:41:32;40.45;;;18.65;;
65691;SDS011;52411;52.716;6.696;2023-10-13T02:44:00;44.35;;;19.90;;
65691;SDS011;52411;52.716;6.696;2023-10-13T02:46:26;40.10;;;20.25;;
65691;SDS011;52411;52.716;6.696;2023-10-13T02:48:54;42.03;;;20.38;;
65691;SDS011;52411;52.716;6.696;2023-10-13T02:51:22;36.95;;;18.98;;
65691;SDS011;52411;52.716;6.696;2023-10-13T02:53:56;33.95;;;18.52;;
65691;SDS011;52411;52.716;6.696;2023-10-13T02:56:28;36.75;;;18.48;;
65691;SDS011;52411;52.716;6.696;2023-10-13T02:58:54;37.65;;;19.70;;
65691;SDS011;52411;52.716;6.696;2023-10-13T03:01:28;41.25;;;19.35;;
65691;SDS011;52411;52.716;6.696;2023-10-13T03:03:54;39.10;;;17.45;;
65691;SDS011;52411;52.716;6.696;2023-10-13T03:06:21;36.85;;;19.80;;
65691;SDS011;52411;52.716;6.696;2023-10-13T03:08:57;39.67;;;19.38;;
65691;SDS011;52411;52.716;6.696;2023-10-13T03:14:07;39.17;;;18.08;;
65691;SDS011;52411;52.716;6.696;2023-10-13T03:16:40;38.70;;;18.38;;
65691;SDS011;52411;52.716;6.696;2023-10-13T03:19:06;42.85;;;20.02;;
65691;SDS011;52411;52.716;6.696;2023-10-13T03:21:34;40.80;;;20.65;;
65691;SDS011;52411;52.716;6.696;2023-10-13T03:24:01;41.58;;;20.00;;
65691;SDS011;52411;52.716;6.696;2023-10-13T03:26:32;43.53;;;20.40;;
65691;SDS011;52411;52.716;6.696;2023-10-13T03:29:00;38.97;;;18.60;;
65691;SDS011;52411;52.716;6.696;2023-10-13T03:31:29;37.95;;;19.65;;
65691;SDS011;52411;52.716;6.696;2023-10-13T03:33:55;38.85;;;19.65;;
65691;SDS011;52411;52.716;6.696;2023-10-13T03:36:25;41.97;;;19.40;;
65691;SDS011;52411;52.716;6.696;2023-10-13T03:39:09;37.10;;;19.33;;
65691;SDS011;52411;52.716;6.696;2023-10-13T03:41:36;42.30;;;20.60;;
65691;SDS011;52411;52.716;6.696;2023-10-13T03:44:04;38.22;;;18.92;;
65691;SDS011;52411;52.716;6.696;2023-10-13T03:46:38;36.72;;;18.20;;
65691;SDS011;52411;52.716;6.696;2023-10-13T03:49:06;41.90;;;20.58;;
65691;SDS011;52411;52.716;6.696;2023-10-13T03:51:37;37.22;;;18.98;;
65691;SDS011;52411;52.716;6.696;2023-10-13T03:54:04;38.20;;;19.60;;
65691;SDS011;52411;52.716;6.696;2023-10-13T03:56:32;37.47;;;19.50;;
65691;SDS011;52411;52.716;6.696;2023-10-13T03:59:04;36.33;;;18.15;;
65691;SDS011;52411;52.716;6.696;2023-10-13T04:01:35;37.00;;;17.95;;
65691;SDS011;52411;52.716;6.696;2023-10-13T04:04:17;35.88;;;18.92;;
65691;SDS011;52411;52.716;6.696;2023-10-13T04:07:15;35.55;;;18.98;;
65691;SDS011;52411;52.716;6.696;2023-10-13T04:10:01;35.80;;;17.60;;
65691;SDS011;52411;52.716;6.696;2023-10-13T04:12:45;38.30;;;18.02;;
65691;SDS011;52411;52.716;6.696;2023-10-13T04:15:36;35.42;;;17.95;;
65691;SDS011;52411;52.716;6.696;2023-10-13T04:18:06;35.13;;;17.83;;
65691;SDS011;52411;52.716;6.696;2023-10-13T04:20:43;37.80;;;17.58;;
65691;SDS011;52411;52.716;6.696;2023-10-13T04:23:11;34.67;;;17.42;;
65691;SDS011;52411;52.716;6.696;2023-10-13T04:25:43;39.10;;;18.52;;
65691;SDS011;52411;52.716;6.696;2023-10-13T04:28:12;38.13;;;18.08;;
65691;SDS011;52411;52.716;6.696;2023-10-13T04:36:09;35.80;;;17.52;;
65691;SDS011;52411;52.716;6.696;2023-10-13T04:38:49;31.83;;;16.48;;
65691;SDS011;52411;52.716;6.696;2023-10-13T04:41:31;42.13;;;17.63;;
65691;SDS011;52411;52.716;6.696;2023-10-13T04:44:17;35.63;;;16.98;;
65691;SDS011;52411;52.716;6.696;2023-10-13T04:49:39;31.98;;;15.95;;
65691;SDS011;52411;52.716;6.696;2023-10-13T04:52:05;34.38;;;15.98;;
65691;SDS011;52411;52.716;6.696;2023-10-13T04:54:34;32.13;;;15.95;;
65691;SDS011;52411;52.716;6.696;2023-10-13T04:57:19;29.20;;;15.35;;
65691;SDS011;52411;52.716;6.696;2023-10-13T05:00:05;29.83;;;14.95;;
65691;SDS011;52411;52.716;6.696;2023-10-13T05:05:11;32.05;;;15.43;;
65691;SDS011;52411;52.716;6.696;2023-10-13T05:07:44;30.65;;;15.32;;
65691;SDS011;52411;52.716;6.696;2023-10-13T05:10:29;29.77;;;15.23;;
65691;SDS011;52411;52.716;6.696;2023-10-13T05:13:14;28.63;;;15.27;;
65691;SDS011;52411;52.716;6.696;2023-10-13T05:15:59;28.63;;;14.10;;
65691;SDS011;52411;52.716;6.696;2023-10-13T05:18:44;26.67;;;14.35;;
65691;SDS011;52411;52.716;6.696;2023-10-13T05:21:28;29.25;;;15.50;;
65691;SDS011;52411;52.716;6.696;2023-10-13T05:24:13;26.52;;;14.43;;
65691;SDS011;52411;52.716;6.696;2023-10-13T05:26:57;27.00;;;14.82;;
65691;SDS011;52411;52.716;6.696;2023-10-13T05:29:42;26.10;;;14.32;;
65691;SDS011;52411;52.716;6.696;2023-10-13T05:32:29;29.17;;;14.48;;
65691;SDS011;52411;52.716;6.696;2023-10-13T05:35:14;27.60;;;13.30;;
65691;SDS011;52411;52.716;6.696;2023-10-13T05:37:58;27.05;;;13.98;;
65691;SDS011;52411;52.716;6.696;2023-10-13T05:43:36;23.90;;;13.18;;
65691;SDS011;52411;52.716;6.696;2023-10-13T05:46:20;23.90;;;11.90;;
65691;SDS011;52411;52.716;6.696;2023-10-13T05:48:52;19.88;;;11.88;;
65691;SDS011;52411;52.716;6.696;2023-10-13T05:51:24;21.83;;;12.55;;
65691;SDS011;52411;52.716;6.696;2023-10-13T05:53:57;19.75;;;11.27;;
65691;SDS011;52411;52.716;6.696;2023-10-13T05:56:44;23.85;;;11.52;;
65691;SDS011;52411;52.716;6.696;2023-10-13T05:59:30;20.23;;;12.07;;
65691;SDS011;52411;52.716;6.696;2023-10-13T06:02:15;16.92;;;10.55;;
65691;SDS011;52411;52.716;6.696;2023-10-13T06:05:03;19.90;;;11.50;;
65691;SDS011;52411;52.716;6.696;2023-10-13T06:07:48;18.05;;;10.30;;
65691;SDS011;52411;52.716;6.696;2023-10-13T06:10:33;15.13;;;9.80;;
65691;SDS011;52411;52.716;6.696;2023-10-13T06:13:17;20.88;;;10.48;;
65691;SDS011;52411;52.716;6.696;2023-10-13T06:16:05;25.30;;;11.38;;
65691;SDS011;52411;52.716;6.696;2023-10-13T06:18:50;18.00;;;10.63;;
65691;SDS011;52411;52.716;6.696;2023-10-13T06:21:34;20.60;;;11.38;;
65691;SDS011;52411;52.716;6.696;2023-10-13T06:24:18;17.02;;;9.82;;
65691;SDS011;52411;52.716;6.696;2023-10-13T06:27:03;17.13;;;10.18;;
65691;SDS011;52411;52.716;6.696;2023-10-13T06:29:47;23.45;;;10.43;;
65691;SDS011;52411;52.716;6.696;2023-10-13T06:32:13;18.90;;;10.52;;
65691;SDS011;52411;52.716;6.696;2023-10-13T06:34:41;18.83;;;10.98;;
65691;SDS011;52411;52.716;6.696;2023-10-13T06:37:12;19.02;;;10.68;;
65691;SDS011;52411;52.716;6.696;2023-10-13T06:39:51;16.98;;;10.13;;
65691;SDS011;52411;52.716;6.696;2023-10-13T06:42:21;18.42;;;9.52;;
65691;SDS011;52411;52.716;6.696;2023-10-13T06:44:50;17.63;;;10.07;;
65691;SDS011;52411;52.716;6.696;2023-10-13T06:47:16;16.77;;;9.48;;
65691;SDS011;52411;52.716;6.696;2023-10-13T06:49:45;16.23;;;9.75;;
65691;SDS011;52411;52.716;6.696;2023-10-13T06:52:13;16.70;;;8.98;;
65691;SDS011;52411;52.716;6.696;2023-10-13T06:54:41;15.77;;;9.43;;
65691;SDS011;52411;52.716;6.696;2023-10-13T06:57:08;18.20;;;8.68;;
65691;SDS011;52411;52.716;6.696;2023-10-13T06:59:35;13.77;;;7.93;;
65691;SDS011;52411;52.716;6.696;2023-10-13T07:02:06;10.93;;;6.93;;
65691;SDS011;52411;52.716;6.696;2023-10-13T07:04:34;14.00;;;7.72;;
65691;SDS011;52411;52.716;6.696;2023-10-13T07:07:04;13.45;;;6.60;;
65691;SDS011;52411;52.716;6.696;2023-10-13T07:09:35;15.35;;;6.78;;
65691;SDS011;52411;52.716;6.696;2023-10-13T07:12:02;11.57;;;7.43;;
65691;SDS011;52411;52.716;6.696;2023-10-13T07:14:29;12.93;;;6.82;;
65691;SDS011;52411;52.716;6.696;2023-10-13T07:17:02;13.38;;;6.75;;
65691;SDS011;52411;52.716;6.696;2023-10-13T07:19:30;12.43;;;6.68;;
65691;SDS011;52411;52.716;6.696;2023-10-13T07:21:57;11.80;;;6.78;;
65691;SDS011;52411;52.716;6.696;2023-10-13T07:24:27;15.88;;;7.50;;
65691;SDS011;52411;52.716;6.696;2023-10-13T07:26:59;14.57;;;7.22;;
65691;SDS011;52411;52.716;6.696;2023-10-13T07:29:30;13.75;;;7.40;;
65691;SDS011;52411;52.716;6.696;2023-10-13T07:31:55;15.13;;;7.50;;
65691;SDS011;52411;52.716;6.696;2023-10-13T07:34:21;16.67;;;7.38;;
65691;SDS011;52411;52.716;6.696;2023-10-13T07:36:51;14.07;;;6.70;;
65691;SDS011;52411;52.716;6.696;2023-10-13T07:39:17;13.80;;;7.20;;
65691;SDS011;52411;52.716;6.696;2023-10-13T07:41:50;18.23;;;7.85;;
65691;SDS011;52411;52.716;6.696;2023-10-13T07:44:28;17.65;;;8.15;;
65691;SDS011;52411;52.716;6.696;2023-10-13T07:46:58;16.35;;;7.63;;
65691;SDS011;52411;52.716;6.696;2023-10-13T07:49:33;17.70;;;7.88;;
65691;SDS011;52411;52.716;6.696;2023-10-13T07:52:02;17.13;;;7.95;;
65691;SDS011;52411;52.716;6.696;2023-10-13T07:54:47;16.70;;;7.38;;
65691;SDS011;52411;52.716;6.696;2023-10-13T07:57:49;13.20;;;7.03;;
65691;SDS011;52411;52.716;6.696;2023-10-13T08:00:21;16.45;;;7.45;;
65691;SDS011;52411;52.716;6.696;2023-10-13T08:03:00;21.98;;;8.05;;
65691;SDS011;52411;52.716;6.696;2023-10-13T08:05:55;18.52;;;7.57;;
65691;SDS011;52411;52.716;6.696;2023-10-13T08:08:32;15.68;;;8.27;;
65691;SDS011;52411;52.716;6.696;2023-10-13T08:11:08;17.33;;;7.80;;
65691;SDS011;52411;52.716;6.696;2023-10-13T08:13:50;17.95;;;7.75;;
65691;SDS011;52411;52.716;6.696;2023-10-13T08:16:22;15.50;;;7.20;;
65691;SDS011;52411;52.716;6.696;2023-10-13T08:18:51;19.58;;;7.70;;
65691;SDS011;52411;52.716;6.696;2023-10-13T08:21:18;17.20;;;7.65;;
65691;SDS011;52411;52.716;6.696;2023-10-13T08:23:50;19.20;;;8.25;;
65691;SDS011;52411;52.716;6.696;2023-10-13T08:26:22;19.20;;;7.72;;
65691;SDS011;52411;52.716;6.696;2023-10-13T08:28:58;17.85;;;8.40;;
65691;SDS011;52411;52.716;6.696;2023-10-13T08:31:50;18.20;;;7.82;;
65691;SDS011;52411;52.716;6.696;2023-10-13T08:34:29;18.15;;;8.63;;
65691;SDS011;52411;52.716;6.696;2023-10-13T08:37:04;17.70;;;8.40;;
65691;SDS011;52411;52.716;6.696;2023-10-13T08:39:51;18.67;;;8.60;;
65691;SDS011;52411;52.716;6.696;2023-10-13T08:42:27;17.40;;;8.98;;
65691;SDS011;52411;52.716;6.696;2023-10-13T08:47:48;18.80;;;9.57;;
65691;SDS011;52411;52.716;6.696;2023-10-13T08:50:44;14.02;;;8.77;;
65691;SDS011;52411;52.716;6.696;2023-10-13T08:53:20;18.58;;;9.27;;
65691;SDS011;52411;52.716;6.696;2023-10-13T08:58:40;20.52;;;9.75;;
65691;SDS011;52411;52.716;6.696;2023-10-13T09:01:23;16.58;;;8.27;;
65691;SDS011;52411;52.716;6.696;2023-10-13T09:04:01;12.73;;;7.68;;
65691;SDS011;52411;52.716;6.696;2023-10-13T09:06:50;10.73;;;7.00;;
65691;SDS011;52411;52.716;6.696;2023-10-13T09:09:32;13.45;;;7.45;;
65691;SDS011;52411;52.716;6.696;2023-10-13T09:12:19;16.58;;;7.53;;
65691;SDS011;52411;52.716;6.696;2023-10-13T09:15:02;9.88;;;6.00;;
65691;SDS011;52411;52.716;6.696;2023-10-13T09:17:45;15.68;;;6.65;;
65691;SDS011;52411;52.716;6.696;2023-10-13T09:20:15;14.48;;;7.15;;
65691;SDS011;52411;52.716;6.696;2023-10-13T09:22:47;17.00;;;7.25;;
65691;SDS011;52411;52.716;6.696;2023-10-13T09:28:04;15.43;;;6.68;;
65691;SDS011;52411;52.716;6.696;2023-10-13T09:30:43;16.27;;;6.88;;
65691;SDS011;52411;52.716;6.696;2023-10-13T09:33:22;15.15;;;6.30;;
65691;SDS011;52411;52.716;6.696;2023-10-13T09:36:04;16.67;;;6.90;;
65691;SDS011;52411;52.716;6.696;2023-10-13T10:23:53;14.73;;;7.68;;
65691;SDS011;52411;52.716;6.696;2023-10-13T10:26:19;15.32;;;6.57;;
65691;SDS011;52411;52.716;6.696;2023-10-13T10:28:45;15.43;;;7.13;;
65691;SDS011;52411;52.716;6.696;2023-10-13T10:31:12;14.77;;;6.47;;
65691;SDS011;52411;52.716;6.696;2023-10-13T10:33:39;16.60;;;7.68;;
65691;SDS011;52411;52.716;6.696;2023-10-13T10:36:05;16.63;;;6.82;;
65691;SDS011;52411;52.716;6.696;2023-10-13T10:38:31;15.13;;;6.93;;
65691;SDS011;52411;52.716;6.696;2023-10-13T10:41:06;13.82;;;7.22;;
65691;SDS011;52411;52.716;6.696;2023-10-13T10:46:17;19.92;;;7.43;;
65691;SDS011;52411;52.716;6.696;2023-10-13T10:48:50;15.25;;;7.03;;
65691;SDS011;52411;52.716;6.696;2023-10-13T10:51:21;12.57;;;7.20;;
65691;SDS011;52411;52.716;6.696;2023-10-13T10:53:51;12.85;;;6.63;;
65691;SDS011;52411;52.716;6.696;2023-10-13T10:56:18;17.42;;;7.18;;
65691;SDS011;52411;52.716;6.696;2023-10-13T10:58:49;14.32;;;6.65;;
65691;SDS011;52411;52.716;6.696;2023-10-13T11:01:23;18.38;;;7.05;;
65691;SDS011;52411;52.716;6.696;2023-10-13T11:03:53;14.70;;;7.10;;
65691;SDS011;52411;52.716;6.696;2023-10-13T11:06:27;16.67;;;7.10;;
65691;SDS011;52411;52.716;6.696;2023-10-13T11:09:02;16.20;;;6.82;;
65691;SDS011;52411;52.716;6.696;2023-10-13T11:11:31;16.92;;;7.10;;
65691;SDS011;52411;52.716;6.696;2023-10-13T11:14:00;15.55;;;7.28;;
65691;SDS011;52411;52.716;6.696;2023-10-13T11:16:48;17.10;;;6.78;;
65691;SDS011;52411;52.716;6.696;2023-10-13T11:22:13;18.25;;;7.28;;
65691;SDS011;52411;52.716;6.696;2023-10-13T11:24:58;16.08;;;7.30;;
65691;SDS011;52411;52.716;6.696;2023-10-13T11:27:31;14.65;;;7.05;;
65691;SDS011;52411;52.716;6.696;2023-10-13T11:30:16;19.10;;;7.10;;
65691;SDS011;52411;52.716;6.696;2023-10-13T11:33:00;13.77;;;7.35;;
65691;SDS011;52411;52.716;6.696;2023-10-13T11:35:30;16.80;;;7.35;;
65691;SDS011;52411;52.716;6.696;2023-10-13T11:38:18;17.35;;;7.53;;
65691;SDS011;52411;52.716;6.696;2023-10-13T11:41:00;20.02;;;7.60;;
65691;SDS011;52411;52.716;6.696;2023-10-13T11:43:30;15.60;;;7.82;;
65691;SDS011;52411;52.716;6.696;2023-10-13T11:46:11;16.73;;;7.55;;
65691;SDS011;52411;52.716;6.696;2023-10-13T11:48:40;18.35;;;8.00;;
65691;SDS011;52411;52.716;6.696;2023-10-13T11:51:07;14.32;;;7.53;;
65691;SDS011;52411;52.716;6.696;2023-10-13T11:53:37;17.58;;;6.25;;
65691;SDS011;52411;52.716;6.696;2023-10-13T11:56:06;16.95;;;6.47;;
65691;SDS011;52411;52.716;6.696;2023-10-13T11:58:38;21.10;;;7.70;;
65691;SDS011;52411;52.716;6.696;2023-10-13T12:01:04;15.85;;;7.30;;
65691;SDS011;52411;52.716;6.696;2023-10-13T12:03:40;17.65;;;7.50;;
65691;SDS011;52411;52.716;6.696;2023-10-13T12:06:25;16.92;;;7.05;;
65691;SDS011;52411;52.716;6.696;2023-10-13T12:09:03;20.35;;;7.13;;
65691;SDS011;52411;52.716;6.696;2023-10-13T12:11:42;12.85;;;6.97;;
65691;SDS011;52411;52.716;6.696;2023-10-13T12:14:08;17.80;;;7.93;;
65691;SDS011;52411;52.716;6.696;2023-10-13T12:16:42;14.20;;;6.90;;
65691;SDS011;52411;52.716;6.696;2023-10-13T12:19:13;16.25;;;7.53;;
65691;SDS011;52411;52.716;6.696;2023-10-13T12:21:52;26.17;;;7.55;;
65691;SDS011;52411;52.716;6.696;2023-10-13T12:24:22;14.85;;;6.57;;
65691;SDS011;52411;52.716;6.696;2023-10-13T12:27:01;12.60;;;6.65;;
65691;SDS011;52411;52.716;6.696;2023-10-13T12:29:46;14.50;;;6.55;;
65691;SDS011;52411;52.716;6.696;2023-10-13T12:32:12;18.48;;;7.70;;
65691;SDS011;52411;52.716;6.696;2023-10-13T12:34:39;15.82;;;7.30;;
65691;SDS011;52411;52.716;6.696;2023-10-13T12:37:24;18.38;;;7.25;;
65691;SDS011;52411;52.716;6.696;2023-10-13T12:40:06;18.10;;;7.45;;
65691;SDS011;52411;52.716;6.696;2023-10-13T12:43:01;16.25;;;7.45;;
65691;SDS011;52411;52.716;6.696;2023-10-13T12:45:46;18.73;;;7.47;;
65691;SDS011;52411;52.716;6.696;2023-10-13T12:48:31;16.73;;;7.00;;
65691;SDS011;52411;52.716;6.696;2023-10-13T12:51:16;19.35;;;7.70;;
65691;SDS011;52411;52.716;6.696;2023-10-13T12:53:54;17.38;;;7.63;;
65691;SDS011;52411;52.716;6.696;2023-10-13T12:56:20;19.55;;;7.40;;
65691;SDS011;52411;52.716;6.696;2023-10-13T12:58:51;16.02;;;7.40;;
65691;SDS011;52411;52.716;6.696;2023-10-13T13:03:49;16.23;;;7.63;;
65691;SDS011;52411;52.716;6.696;2023-10-13T13:06:19;22.10;;;7.95;;
65691;SDS011;52411;52.716;6.696;2023-10-13T13:08:50;19.60;;;7.82;;
65691;SDS011;52411;52.716;6.696;2023-10-13T13:11:23;12.82;;;7.32;;
65691;SDS011;52411;52.716;6.696;2023-10-13T13:13:49;19.50;;;7.88;;
65691;SDS011;52411;52.716;6.696;2023-10-13T13:16:15;19.67;;;8.50;;
65691;SDS011;52411;52.716;6.696;2023-10-13T13:18:45;19.02;;;7.70;;
65691;SDS011;52411;52.716;6.696;2023-10-13T13:21:10;17.55;;;7.68;;
65691;SDS011;52411;52.716;6.696;2023-10-13T13:23:48;21.25;;;7.95;;
65691;SDS011;52411;52.716;6.696;2023-10-13T13:26:14;23.35;;;7.80;;
65691;SDS011;52411;52.716;6.696;2023-10-13T13:28:45;18.98;;;7.97;;
65691;SDS011;52411;52.716;6.696;2023-10-13T13:31:20;21.38;;;7.55;;
65691;SDS011;52411;52.716;6.696;2023-10-13T13:33:55;19.70;;;7.70;;
65691;SDS011;52411;52.716;6.696;2023-10-13T13:36:21;21.92;;;7.82;;
65691;SDS011;52411;52.716;6.696;2023-10-13T13:38:47;18.40;;;7.65;;
65691;SDS011;52411;52.716;6.696;2023-10-13T13:41:15;17.65;;;7.15;;
65691;SDS011;52411;52.716;6.696;2023-10-13T13:43:42;17.83;;;7.85;;
65691;SDS011;52411;52.716;6.696;2023-10-13T13:46:15;15.02;;;7.43;;
65691;SDS011;52411;52.716;6.696;2023-10-13T13:48:42;19.10;;;7.63;;
65691;SDS011;52411;52.716;6.696;2023-10-13T13:51:08;19.50;;;7.22;;
65691;SDS011;52411;52.716;6.696;2023-10-13T13:53:41;21.77;;;7.80;;
65691;SDS011;52411;52.716;6.696;2023-10-13T13:56:13;20.65;;;7.90;;
65691;SDS011;52411;52.716;6.696;2023-10-13T13:58:43;20.15;;;7.93;;
65691;SDS011;52411;52.716;6.696;2023-10-13T14:01:15;15.90;;;8.05;;
65691;SDS011;52411;52.716;6.696;2023-10-13T14:03:48;18.60;;;8.32;;
65691;SDS011;52411;52.716;6.696;2023-10-13T14:06:18;17.02;;;8.13;;
65691;SDS011;52411;52.716;6.696;2023-10-13T14:08:49;18.08;;;8.68;;
65691;SDS011;52411;52.716;6.696;2023-10-13T14:11:31;19.92;;;8.23;;
65691;SDS011;52411;52.716;6.696;2023-10-13T14:14:07;17.13;;;7.93;;
65691;SDS011;52411;52.716;6.696;2023-10-13T14:16:40;16.70;;;8.52;;
65691;SDS011;52411;52.716;6.696;2023-10-13T14:19:13;19.25;;;7.63;;
65691;SDS011;52411;52.716;6.696;2023-10-13T14:21:44;14.75;;;8.20;;
65691;SDS011;52411;52.716;6.696;2023-10-13T14:24:16;18.13;;;8.70;;
65691;SDS011;52411;52.716;6.696;2023-10-13T14:26:43;19.08;;;8.52;;
65691;SDS011;52411;52.716;6.696;2023-10-13T14:29:10;23.58;;;8.50;;
65691;SDS011;52411;52.716;6.696;2023-10-13T14:31:39;19.55;;;7.75;;
65691;SDS011;52411;52.716;6.696;2023-10-13T14:34:05;17.98;;;8.80;;
65691;SDS011;52411;52.716;6.696;2023-10-13T14:36:31;21.33;;;8.57;;
65691;SDS011;52411;52.716;6.696;2023-10-13T14:39:00;18.40;;;9.15;;
65691;SDS011;52411;52.716;6.696;2023-10-13T14:41:26;18.35;;;8.35;;
65691;SDS011;52411;52.716;6.696;2023-10-13T14:43:52;25.63;;;9.85;;
65691;SDS011;52411;52.716;6.696;2023-10-13T14:46:18;23.02;;;8.45;;
65691;SDS011;52411;52.716;6.696;2023-10-13T14:48:48;17.27;;;8.05;;
65691;SDS011;52411;52.716;6.696;2023-10-13T14:51:16;18.30;;;8.30;;
65691;SDS011;52411;52.716;6.696;2023-10-13T14:53:42;24.05;;;9.45;;
65691;SDS011;52411;52.716;6.696;2023-10-13T14:56:11;14.93;;;8.77;;
65691;SDS011;52411;52.716;6.696;2023-10-13T14:58:38;17.13;;;9.23;;
65691;SDS011;52411;52.716;6.696;2023-10-13T15:01:10;25.30;;;10.57;;
65691;SDS011;52411;52.716;6.696;2023-10-13T15:03:47;21.55;;;9.55;;
65691;SDS011;52411;52.716;6.696;2023-10-13T15:06:23;18.10;;;9.18;;
65691;SDS011;52411;52.716;6.696;2023-10-13T15:08:51;18.45;;;9.57;;
65691;SDS011;52411;52.716;6.696;2023-10-13T15:11:19;21.50;;;9.65;;
65691;SDS011;52411;52.716;6.696;2023-10-13T15:13:45;25.23;;;10.45;;
65691;SDS011;52411;52.716;6.696;2023-10-13T15:18:43;25.30;;;10.88;;
65691;SDS011;52411;52.716;6.696;2023-10-13T15:21:19;23.00;;;10.07;;
65691;SDS011;52411;52.716;6.696;2023-10-13T15:23:48;25.23;;;9.80;;
65691;SDS011;52411;52.716;6.696;2023-10-13T15:26:14;22.38;;;9.55;;
65691;SDS011;52411;52.716;6.696;2023-10-13T15:28:40;22.33;;;8.63;;
65691;SDS011;52411;52.716;6.696;2023-10-13T15:31:18;18.27;;;9.43;;
65691;SDS011;52411;52.716;6.696;2023-10-13T15:36:26;16.60;;;8.75;;
65691;SDS011;52411;52.716;6.696;2023-10-13T15:38:52;20.42;;;8.93;;
65691;SDS011;52411;52.716;6.696;2023-10-13T15:41:22;18.90;;;9.57;;
65691;SDS011;52411;52.716;6.696;2023-10-13T15:43:52;15.73;;;8.98;;
65691;SDS011;52411;52.716;6.696;2023-10-13T15:46:20;18.05;;;9.07;;
65691;SDS011;52411;52.716;6.696;2023-10-13T15:48:47;19.05;;;8.98;;
65691;SDS011;52411;52.716;6.696;2023-10-13T15:51:13;18.98;;;9.18;;
65691;SDS011;52411;52.716;6.696;2023-10-13T15:53:39;19.83;;;8.57;;
65691;SDS011;52411;52.716;6.696;2023-10-13T15:56:06;19.52;;;8.20;;
65691;SDS011;52411;52.716;6.696;2023-10-13T16:01:12;17.60;;;7.80;;
65691;SDS011;52411;52.716;6.696;2023-10-13T16:03:41;19.70;;;8.75;;
65691;SDS011;52411;52.716;6.696;2023-10-13T16:06:16;15.18;;;8.48;;
65691;SDS011;52411;52.716;6.696;2023-10-13T16:08:42;17.73;;;8.68;;
65691;SDS011;52411;52.716;6.696;2023-10-13T16:11:11;19.60;;;9.75;;
65691;SDS011;52411;52.716;6.696;2023-10-13T16:13:44;17.00;;;9.75;;
65691;SDS011;52411;52.716;6.696;2023-10-13T16:16:14;21.63;;;9.82;;
65691;SDS011;52411;52.716;6.696;2023-10-13T16:18:41;21.50;;;9.02;;
65691;SDS011;52411;52.716;6.696;2023-10-13T16:21:09;13.75;;;8.55;;
65691;SDS011;52411;52.716;6.696;2023-10-13T16:23:37;22.40;;;8.85;;
65691;SDS011;52411;52.716;6.696;2023-10-13T16:26:04;21.98;;;8.77;;
65691;SDS011;52411;52.716;6.696;2023-10-13T16:28:33;17.10;;;9.13;;
65691;SDS011;52411;52.716;6.696;2023-10-13T16:31:03;19.30;;;9.40;;